createdAt,value
2019-02-23T00:00:21.122Z,4.00
2019-02-23T00:02:49.705Z,4.00
2019-02-23T00:05:18.362Z,4.00
2019-02-23T00:07:46.964Z,4.00
2019-02-23T00:10:15.599Z,4.00
2019-02-23T00:12:44.145Z,4.00
2019-02-23T00:15:12.769Z,3.90
2019-02-23T00:17:41.330Z,3.80
2019-02-23T00:20:10.002Z,3.80
2019-02-23T00:22:38.629Z,3.90
2019-02-23T00:25:13.769Z,3.80
2019-02-23T00:27:42.413Z,3.80
2019-02-23T00:30:11.124Z,3.70
2019-02-23T00:32:39.816Z,3.80
2019-02-23T00:35:08.449Z,3.70
2019-02-23T00:37:37.157Z,3.60
2019-02-23T00:40:06.970Z,3.50
2019-02-23T00:42:35.822Z,3.50
2019-02-23T00:45:04.562Z,3.50
2019-02-23T00:47:33.097Z,3.60
2019-02-23T00:50:01.700Z,3.60
2019-02-23T00:52:30.349Z,3.60
2019-02-23T00:54:58.874Z,3.60
2019-02-23T00:57:27.587Z,3.60
2019-02-23T00:59:57.217Z,3.50
2019-02-23T01:02:25.827Z,3.40
2019-02-23T01:04:54.538Z,3.30
2019-02-23T01:07:23.132Z,3.20
2019-02-23T01:09:51.650Z,3.20
2019-02-23T01:12:20.356Z,3.20
2019-02-23T01:14:48.950Z,3.10
2019-02-23T01:17:17.641Z,3.10
2019-02-23T01:19:48.018Z,3.00
2019-02-23T01:22:16.884Z,2.90
2019-02-23T01:24:45.585Z,2.90
2019-02-23T01:27:14.173Z,2.80
2019-02-23T01:29:42.879Z,2.80
2019-02-23T01:32:11.466Z,2.90
2019-02-23T01:34:39.942Z,2.90
2019-02-23T01:37:08.689Z,2.80
2019-02-23T01:39:37.313Z,2.80
2019-02-23T01:42:06.327Z,2.80
2019-02-23T01:44:34.869Z,2.90
2019-02-23T01:47:03.484Z,2.70
2019-02-23T01:49:32.065Z,2.70
2019-02-23T01:52:00.697Z,2.60
2019-02-23T01:54:29.309Z,2.60
2019-02-23T01:56:58.015Z,2.50
2019-02-23T01:59:26.607Z,2.50
2019-02-23T02:01:55.259Z,2.50
2019-02-23T02:04:23.950Z,2.50
2019-02-23T02:06:52.530Z,2.50
2019-02-23T02:09:21.061Z,2.50
2019-02-23T02:11:49.616Z,2.40
2019-02-23T02:14:18.305Z,2.40
2019-02-23T02:16:46.989Z,2.30
2019-02-23T02:19:15.477Z,2.30
2019-02-23T02:21:44.102Z,2.30
2019-02-23T02:24:12.683Z,2.20
2019-02-23T02:26:41.286Z,2.20
2019-02-23T02:29:09.924Z,2.20
2019-02-23T02:31:38.616Z,2.20
2019-02-23T02:34:08.800Z,2.20
2019-02-23T02:36:37.434Z,2.20
2019-02-23T02:39:11.668Z,2.10
2019-02-23T02:41:40.357Z,2.10
2019-02-23T02:44:08.988Z,2.10
2019-02-23T02:46:37.621Z,2.10
2019-02-23T02:49:06.327Z,2.10
2019-02-23T02:51:34.939Z,2.00
2019-02-23T02:54:03.705Z,1.90
2019-02-23T02:56:32.380Z,1.90
2019-02-23T02:59:01.058Z,1.80
2019-02-23T03:01:29.766Z,1.80
2019-02-23T03:03:58.442Z,2.00
2019-02-23T03:06:27.173Z,1.90
2019-02-23T03:08:55.802Z,1.90
2019-02-23T03:11:24.354Z,1.90
2019-02-23T03:13:53.023Z,1.80
2019-02-23T03:16:21.682Z,1.70
2019-02-23T03:18:50.219Z,1.60
2019-02-23T03:21:18.798Z,1.60
2019-02-23T03:23:47.274Z,1.50
2019-02-23T03:26:15.920Z,1.60
2019-02-23T03:28:44.545Z,1.50
2019-02-23T03:31:13.115Z,1.60
2019-02-23T03:33:41.684Z,1.40
2019-02-23T03:36:10.225Z,1.40
2019-02-23T03:38:38.850Z,1.50
2019-02-23T03:41:07.455Z,1.40
2019-02-23T03:43:36.028Z,1.40
2019-02-23T03:46:04.689Z,1.30
2019-02-23T03:48:33.268Z,1.40
2019-02-23T03:51:01.862Z,1.40
2019-02-23T03:53:30.585Z,1.50
2019-02-23T03:55:59.369Z,1.50
2019-02-23T03:58:28.054Z,1.50
2019-02-23T04:00:56.661Z,1.50
2019-02-23T04:03:25.190Z,1.50
2019-02-23T04:05:53.703Z,1.30
2019-02-23T04:08:22.420Z,1.30
2019-02-23T04:10:51.053Z,1.30
2019-02-23T04:13:19.597Z,1.30
2019-02-23T04:15:48.323Z,1.20
2019-02-23T04:18:16.987Z,1.10
2019-02-23T04:20:45.633Z,1.10
2019-02-23T04:23:14.279Z,0.90
2019-02-23T04:25:42.903Z,0.90
2019-02-23T04:28:11.505Z,0.90
2019-02-23T04:30:40.213Z,0.80
2019-02-23T04:33:08.761Z,0.90
2019-02-23T04:35:37.346Z,0.80
2019-02-23T04:38:05.891Z,0.90
2019-02-23T04:40:34.538Z,0.90
2019-02-23T04:43:03.069Z,0.90
2019-02-23T04:45:31.880Z,0.80
2019-02-23T04:48:00.549Z,0.70
2019-02-23T04:50:29.234Z,0.70
2019-02-23T04:52:57.790Z,0.70
2019-02-23T04:55:26.406Z,0.70
2019-02-23T04:57:55.055Z,0.80
2019-02-23T05:00:23.638Z,0.80
2019-02-23T05:02:52.269Z,0.80
2019-02-23T05:05:20.909Z,0.70
2019-02-23T05:07:49.466Z,0.50
2019-02-23T05:10:18.032Z,0.50
2019-02-23T05:12:46.662Z,0.30
2019-02-23T05:15:15.301Z,0.40
2019-02-23T05:17:43.847Z,0.30
2019-02-23T05:20:12.587Z,0.50
2019-02-23T05:22:41.152Z,0.50
2019-02-23T05:25:09.760Z,0.50
2019-02-23T05:27:38.530Z,0.40
2019-02-23T05:30:10.380Z,0.30
2019-02-23T05:32:39.124Z,0.30
2019-02-23T05:35:10.489Z,0.20
2019-02-23T05:37:39.223Z,0.30
2019-02-23T05:40:10.395Z,0.20
2019-02-23T05:42:39.053Z,0.20
2019-02-23T05:45:09.668Z,0.30
2019-02-23T05:47:38.367Z,0.30
2019-02-23T05:50:09.000Z,0.20
2019-02-23T05:52:37.532Z,0.10
2019-02-23T05:55:06.189Z,0.10
2019-02-23T05:57:34.862Z,0.00
2019-02-23T06:00:03.718Z,0.00
2019-02-23T06:02:32.330Z,0.00
2019-02-23T06:05:00.907Z,-0.10
2019-02-23T06:07:29.446Z,-0.10
2019-02-23T06:09:57.997Z,0.00
2019-02-23T06:12:26.659Z,0.00
2019-02-23T06:14:55.201Z,0.10
2019-02-23T06:17:23.776Z,-0.10
2019-02-23T06:19:52.341Z,-0.10
2019-02-23T06:22:20.983Z,-0.10
2019-02-23T06:24:49.528Z,-0.30
2019-02-23T06:27:18.077Z,-0.10
2019-02-23T06:29:46.762Z,0.00
2019-02-23T06:32:15.422Z,0.00
2019-02-23T06:34:43.973Z,-0.10
2019-02-23T06:37:12.529Z,-0.10
2019-02-23T06:39:41.175Z,-0.10
2019-02-23T06:42:09.789Z,0.00
2019-02-23T06:44:38.293Z,-0.20
2019-02-23T06:47:06.882Z,-0.20
2019-02-23T06:49:35.431Z,-0.20
2019-02-23T06:52:04.778Z,-0.20
2019-02-23T06:54:33.402Z,0.00
2019-02-23T06:57:02.232Z,0.20
2019-02-23T06:59:30.778Z,0.20
2019-02-23T07:01:59.431Z,0.20
2019-02-23T07:04:28.045Z,0.30
2019-02-23T07:06:56.656Z,0.40
2019-02-23T07:09:25.370Z,0.40
2019-02-23T07:11:53.965Z,0.30
2019-02-23T07:14:22.619Z,0.40
2019-02-23T07:16:51.229Z,0.30
2019-02-23T07:19:19.912Z,0.20
2019-02-23T07:21:48.656Z,0.30
2019-02-23T07:24:17.283Z,0.60
2019-02-23T07:26:45.838Z,0.60
2019-02-23T07:29:14.462Z,0.90
2019-02-23T07:31:42.942Z,1.00
2019-02-23T07:34:11.634Z,1.00
2019-02-23T07:36:40.167Z,0.90
2019-02-23T07:39:08.801Z,1.20
2019-02-23T07:41:37.438Z,1.10
2019-02-23T07:44:06.177Z,0.90
2019-02-23T07:46:34.726Z,1.10
2019-02-23T07:49:03.340Z,0.90
2019-02-23T07:51:32.070Z,1.40
2019-02-23T07:54:00.614Z,1.40
2019-02-23T07:56:29.186Z,1.50
2019-02-23T07:58:57.869Z,1.80
2019-02-23T08:01:26.506Z,1.90
2019-02-23T08:03:55.197Z,1.80
2019-02-23T08:06:23.815Z,2.20
2019-02-23T08:08:52.578Z,2.20
2019-02-23T08:11:21.241Z,2.30
2019-02-23T08:13:49.822Z,2.60
2019-02-23T08:16:18.302Z,2.20
2019-02-23T08:18:46.905Z,2.50
2019-02-23T08:21:15.545Z,3.10
2019-02-23T08:23:44.204Z,3.60
2019-02-23T08:26:12.761Z,3.60
2019-02-23T08:28:41.386Z,3.10
2019-02-23T08:31:10.026Z,3.70
2019-02-23T08:33:38.750Z,4.00
2019-02-23T08:36:07.369Z,4.40
2019-02-23T08:38:35.942Z,4.20
2019-02-23T08:41:04.647Z,4.10
2019-02-23T08:43:33.244Z,4.00
2019-02-23T08:46:02.094Z,4.90
2019-02-23T08:48:30.719Z,5.00
2019-02-23T08:50:59.561Z,4.50
2019-02-23T08:53:28.282Z,4.50
2019-02-23T08:55:57.124Z,4.60
2019-02-23T08:58:25.724Z,5.90
2019-02-23T09:00:54.350Z,6.10
2019-02-23T09:03:24.619Z,6.40
2019-02-23T09:05:53.308Z,6.60
2019-02-23T09:08:21.847Z,6.70
2019-02-23T09:10:50.458Z,6.80
2019-02-23T09:13:19.059Z,6.00
2019-02-23T09:15:47.758Z,6.50
2019-02-23T09:18:16.494Z,6.60
2019-02-23T09:20:45.070Z,7.00
2019-02-23T09:23:13.684Z,6.10
2019-02-23T09:25:42.386Z,5.70
2019-02-23T09:28:11.068Z,5.70
2019-02-23T09:30:39.781Z,6.50
2019-02-23T09:33:08.331Z,7.20
2019-02-23T09:35:36.947Z,7.20
2019-02-23T09:38:05.675Z,7.70
2019-02-23T09:40:34.277Z,6.90
2019-02-23T09:43:02.794Z,6.80
2019-02-23T09:45:31.478Z,7.20
2019-02-23T09:48:00.045Z,7.40
2019-02-23T09:50:28.691Z,7.00
2019-02-23T09:52:57.301Z,7.90
2019-02-23T09:55:25.965Z,7.50
2019-02-23T09:57:54.681Z,6.80
2019-02-23T10:00:23.295Z,7.40
2019-02-23T10:02:52.030Z,8.30
2019-02-23T10:05:20.628Z,7.50
2019-02-23T10:07:49.250Z,6.90
2019-02-23T10:10:17.877Z,7.10
2019-02-23T10:12:46.488Z,7.50
2019-02-23T10:15:15.103Z,7.20
2019-02-23T10:17:43.753Z,7.10
2019-02-23T10:20:13.563Z,6.90
2019-02-23T10:22:42.322Z,7.40
2019-02-23T10:25:10.959Z,7.60
2019-02-23T10:27:39.571Z,6.60
2019-02-23T10:30:11.113Z,7.60
2019-02-23T10:32:39.721Z,8.30
2019-02-23T10:35:10.175Z,8.80
2019-02-23T10:37:38.864Z,9.00
2019-02-23T10:40:09.972Z,8.60
2019-02-23T10:42:38.738Z,8.40
2019-02-23T10:45:10.007Z,9.30
2019-02-23T10:47:38.614Z,9.50
2019-02-23T10:50:09.895Z,8.30
2019-02-23T10:52:38.615Z,7.60
2019-02-23T10:55:13.054Z,8.20
2019-02-23T10:57:41.835Z,8.40
2019-02-23T11:00:22.368Z,9.50
2019-02-23T11:02:51.165Z,8.90
2019-02-23T11:05:20.492Z,10.30
2019-02-23T11:07:49.241Z,9.60
2019-02-23T11:10:18.482Z,9.20
2019-02-23T11:12:47.165Z,8.90
2019-02-23T11:15:17.829Z,7.50
2019-02-23T11:17:46.538Z,8.00
2019-02-23T11:20:16.514Z,7.90
2019-02-23T11:22:45.100Z,8.20
2019-02-23T11:25:13.819Z,8.30
2019-02-23T11:27:42.382Z,8.90
2019-02-23T11:30:15.255Z,8.70
2019-02-23T11:32:44.013Z,9.10
2019-02-23T11:35:16.416Z,8.50
2019-02-23T11:37:44.543Z,9.00
2019-02-23T11:40:14.525Z,8.50
2019-02-23T11:42:43.223Z,9.10
2019-02-23T11:45:12.618Z,9.10
2019-02-23T11:47:41.231Z,10.30
2019-02-23T11:50:11.590Z,10.50
2019-02-23T11:52:40.490Z,9.70
2019-02-23T11:55:09.271Z,9.30
2019-02-23T11:57:37.963Z,7.40
2019-02-23T12:00:12.185Z,8.10
2019-02-23T12:02:51.704Z,9.20
2019-02-23T12:05:11.619Z,9.70
2019-02-23T12:07:40.249Z,9.80
2019-02-23T12:10:13.531Z,8.80
2019-02-23T12:12:42.219Z,8.80
2019-02-23T12:15:11.049Z,8.80
2019-02-23T12:17:39.742Z,8.60
2019-02-23T12:20:12.270Z,6.70
2019-02-23T12:22:40.800Z,6.30
2019-02-23T12:25:09.710Z,6.10
2019-02-23T12:27:38.321Z,6.40
2019-02-23T12:30:09.832Z,6.40
2019-02-23T12:32:38.617Z,6.30
2019-02-23T12:35:09.553Z,6.40
2019-02-23T12:37:38.146Z,6.40
2019-02-23T12:40:08.172Z,6.50
2019-02-23T12:42:36.878Z,6.80
2019-02-23T12:45:08.175Z,6.20
2019-02-23T12:47:36.671Z,6.10
2019-02-23T12:50:13.181Z,6.10
2019-02-23T12:52:47.500Z,6.10
2019-02-23T12:55:16.110Z,5.90
2019-02-23T12:57:44.677Z,5.70
2019-02-23T13:00:17.797Z,5.70
2019-02-23T13:02:46.618Z,5.80
2019-02-23T13:05:15.290Z,5.90
2019-02-23T13:07:44.027Z,5.80
2019-02-23T13:10:13.336Z,5.80
2019-02-23T13:13:00.149Z,5.80
2019-02-23T13:15:40.456Z,5.70
2019-02-23T13:18:23.907Z,5.50
2019-02-23T13:21:01.112Z,5.40
2019-02-23T13:23:52.053Z,5.60
2019-02-23T13:26:23.653Z,5.70
2019-02-23T13:29:26.641Z,5.60
2019-02-23T13:32:01.001Z,5.50
2019-02-23T13:34:35.298Z,5.50
2019-02-23T13:37:18.593Z,5.60
2019-02-23T13:39:53.271Z,5.50
2019-02-23T13:42:43.906Z,5.50
2019-02-23T13:45:24.164Z,5.40
2019-02-23T13:47:55.701Z,5.50
2019-02-23T13:50:52.573Z,5.60
2019-02-23T13:53:43.808Z,5.60
2019-02-23T13:56:42.209Z,5.60
2019-02-23T13:59:30.083Z,5.50
2019-02-23T14:02:07.601Z,5.60
2019-02-23T14:04:42.037Z,5.50
2019-02-23T14:07:27.676Z,5.50
2019-02-23T14:10:10.701Z,5.30
2019-02-23T14:12:54.461Z,5.30
2019-02-23T14:15:45.118Z,5.30
2019-02-23T14:18:34.293Z,5.40
2019-02-23T14:21:34.153Z,5.50
2019-02-23T14:24:35.421Z,5.50
2019-02-23T14:27:15.547Z,5.50
2019-02-23T14:29:47.189Z,5.40
2019-02-23T14:32:42.582Z,5.30
2019-02-23T14:35:28.598Z,5.40
2019-02-23T14:38:02.811Z,5.50
2019-02-23T14:40:55.216Z,5.50
2019-02-23T14:43:46.069Z,5.40
2019-02-23T14:46:35.526Z,5.50
2019-02-23T14:49:10.225Z,5.40
2019-02-23T14:52:13.168Z,5.40
2019-02-23T14:54:47.310Z,5.30
2019-02-23T14:57:30.805Z,5.30
2019-02-23T15:00:24.490Z,5.40
2019-02-23T15:03:07.798Z,5.40
2019-02-23T15:05:48.363Z,5.40
2019-02-23T15:08:37.826Z,5.30
2019-02-23T15:11:30.145Z,5.30
2019-02-23T15:14:07.417Z,5.20
2019-02-23T15:16:56.612Z,5.20
2019-02-23T15:19:49.015Z,5.20
2019-02-23T15:22:23.629Z,5.20
2019-02-23T15:24:57.861Z,5.20
2019-02-23T15:27:34.953Z,5.00
2019-02-23T15:30:21.306Z,5.00
2019-02-23T15:33:13.837Z,5.10
2019-02-23T15:35:48.490Z,5.00
2019-02-23T15:38:37.857Z,4.90
2019-02-23T15:41:36.332Z,4.90
2019-02-23T15:44:37.983Z,4.80
2019-02-23T15:47:27.384Z,4.80
2019-02-23T15:49:56.032Z,4.80
2019-02-23T15:52:25.465Z,4.80
2019-02-23T15:54:54.032Z,4.80
2019-02-23T15:57:22.720Z,4.90
2019-02-23T15:59:51.284Z,4.80
2019-02-23T16:02:20.042Z,4.90
2019-02-23T16:04:48.570Z,4.90
2019-02-23T16:07:17.146Z,4.80
2019-02-23T16:09:45.604Z,4.80
2019-02-23T16:12:14.205Z,4.60
2019-02-23T16:14:42.793Z,4.60
2019-02-23T16:17:11.507Z,4.60
2019-02-23T16:19:40.021Z,4.60
2019-02-23T16:22:08.686Z,4.60
2019-02-23T16:24:37.340Z,4.50
2019-02-23T16:27:06.009Z,4.40
2019-02-23T16:29:38.753Z,4.40
2019-02-23T16:32:04.972Z,4.40
2019-02-23T16:34:33.549Z,4.30
2019-02-23T16:37:02.074Z,4.20
2019-02-23T16:39:30.713Z,4.20
2019-02-23T16:41:59.403Z,4.10
2019-02-23T16:44:28.002Z,4.00
2019-02-23T16:46:56.553Z,4.00
2019-02-23T16:49:25.081Z,3.90
2019-02-23T16:51:53.807Z,3.90
2019-02-23T16:54:22.455Z,3.80
2019-02-23T16:56:51.059Z,3.80
2019-02-23T16:59:19.666Z,3.80
2019-02-23T17:01:49.539Z,3.70
2019-02-23T17:04:18.057Z,3.60
2019-02-23T17:06:46.628Z,3.50
2019-02-23T17:09:15.310Z,3.50
2019-02-23T17:11:43.879Z,3.50
2019-02-23T17:14:12.496Z,3.40
2019-02-23T17:16:41.130Z,3.40
2019-02-23T17:19:10.286Z,3.40
2019-02-23T17:21:39.095Z,3.30
2019-02-23T17:24:07.803Z,3.20
2019-02-23T17:26:36.906Z,3.20
2019-02-23T17:29:12.673Z,3.10
2019-02-23T17:31:45.602Z,3.10
2019-02-23T17:34:16.347Z,3.10
2019-02-23T17:36:44.763Z,3.10
2019-02-23T17:39:13.489Z,3.00
2019-02-23T17:41:42.533Z,3.00
2019-02-23T17:44:11.158Z,3.00
2019-02-23T17:46:43.279Z,2.90
2019-02-23T17:49:13.699Z,2.90
2019-02-23T17:51:52.656Z,2.80
2019-02-23T17:54:21.715Z,2.70
2019-02-23T17:56:52.888Z,2.70
2019-02-23T17:59:21.542Z,2.60
2019-02-23T18:01:55.854Z,2.60
2019-02-23T18:04:26.031Z,2.60
2019-02-23T18:06:54.660Z,2.60
2019-02-23T18:09:23.708Z,2.40
2019-02-23T18:11:52.300Z,2.30
2019-02-23T18:14:20.861Z,2.40
2019-02-23T18:16:49.579Z,2.40
2019-02-23T18:19:18.109Z,2.30
2019-02-23T18:21:51.624Z,2.30
2019-02-23T18:24:19.493Z,2.30
2019-02-23T18:26:48.123Z,2.20
2019-02-23T18:29:16.717Z,2.20
2019-02-23T18:31:45.199Z,2.10
2019-02-23T18:34:13.743Z,2.00
2019-02-23T18:36:42.313Z,2.10
2019-02-23T18:39:10.932Z,2.10
2019-02-23T18:41:39.577Z,2.20
2019-02-23T18:44:08.202Z,2.10
2019-02-23T18:46:36.718Z,2.00
2019-02-23T18:49:05.402Z,1.90
2019-02-23T18:51:34.307Z,2.00
2019-02-23T18:54:02.943Z,1.80
2019-02-23T18:56:31.623Z,1.80
2019-02-23T18:59:08.671Z,1.80
2019-02-23T19:01:44.166Z,1.80
2019-02-23T19:04:12.834Z,1.90
2019-02-23T19:07:22.215Z,1.80
2019-02-23T19:09:55.273Z,1.70
2019-02-23T19:12:24.280Z,1.90
2019-02-23T19:14:53.669Z,1.70
2019-02-23T19:17:22.255Z,1.70
2019-02-23T19:19:53.194Z,1.60
2019-02-23T19:22:23.415Z,1.50
2019-02-23T19:24:55.648Z,1.50
2019-02-23T19:27:26.357Z,1.50
2019-02-23T19:29:58.668Z,1.50
2019-02-23T19:35:28.472Z,1.40
2019-02-23T19:38:09.494Z,1.30
2019-02-23T19:40:41.469Z,1.30
2019-02-23T19:43:27.977Z,1.30
2019-02-23T19:46:09.458Z,1.30
2019-02-23T19:48:43.564Z,1.20
2019-02-23T19:54:48.282Z,1.20
2019-02-23T20:00:22.467Z,1.20
2019-02-23T20:08:47.725Z,1.10
2019-02-23T20:11:16.373Z,1.10
2019-02-23T20:13:45.057Z,1.10
2019-02-23T20:16:13.718Z,1.10
2019-02-23T20:18:42.462Z,1.10
2019-02-23T20:21:11.035Z,1.10
2019-02-23T20:23:39.703Z,1.10
2019-02-23T20:26:08.508Z,1.10
2019-02-23T20:28:37.086Z,1.10
2019-02-23T20:31:05.821Z,1.10
2019-02-23T20:33:34.520Z,1.10
2019-02-23T20:36:03.119Z,1.00
2019-02-23T20:38:31.634Z,0.90
2019-02-23T20:41:00.160Z,0.90
2019-02-23T20:43:28.828Z,0.80
2019-02-23T20:45:57.374Z,0.80
2019-02-23T20:48:26.152Z,0.80
2019-02-23T20:50:54.750Z,0.90
2019-02-23T20:53:23.446Z,0.90
2019-02-23T20:55:52.043Z,0.90
2019-02-23T20:58:20.702Z,0.80
2019-02-23T21:00:49.722Z,0.80
2019-02-23T21:03:18.366Z,0.80
2019-02-23T21:05:47.069Z,0.80
2019-02-23T21:08:15.790Z,0.80
2019-02-23T21:10:44.362Z,0.80
2019-02-23T21:13:12.914Z,0.80
2019-02-23T21:15:41.551Z,0.80
2019-02-23T21:18:10.149Z,0.80
2019-02-23T21:20:38.836Z,0.70
2019-02-23T21:23:07.489Z,0.70
2019-02-23T21:25:36.186Z,0.70
2019-02-23T21:28:04.884Z,0.70
2019-02-23T21:30:33.658Z,0.60
2019-02-23T21:33:02.258Z,0.60
2019-02-23T21:35:31.017Z,0.60
2019-02-23T21:37:59.647Z,0.60
2019-02-23T21:40:28.732Z,0.60
2019-02-23T21:45:46.727Z,0.50
2019-02-23T21:48:15.366Z,0.60
2019-02-23T21:50:44.012Z,0.50
2019-02-23T21:53:12.598Z,0.50
2019-02-23T21:55:41.234Z,0.50
2019-02-23T21:58:09.798Z,0.50
2019-02-23T22:00:38.350Z,0.50
2019-02-23T22:03:07.172Z,0.50
2019-02-23T22:05:38.861Z,0.50
2019-02-23T22:08:09.535Z,0.50
2019-02-23T22:10:38.049Z,0.50
2019-02-23T22:13:06.870Z,0.40
2019-02-23T22:15:35.506Z,0.40
2019-02-23T22:18:04.342Z,0.30
2019-02-23T22:20:32.934Z,0.40
2019-02-23T22:23:01.501Z,0.40
2019-02-23T22:25:30.056Z,0.30
2019-02-23T22:27:58.784Z,0.30
2019-02-23T22:30:27.478Z,0.30
2019-02-23T22:32:56.215Z,0.20
2019-02-23T22:35:24.727Z,0.30
2019-02-23T22:37:53.481Z,0.30
2019-02-23T22:40:22.214Z,0.30
2019-02-23T22:42:50.795Z,0.20
2019-02-23T22:45:19.523Z,0.20
2019-02-23T22:47:48.076Z,0.20
2019-02-23T22:50:16.714Z,0.10
2019-02-23T22:52:45.527Z,0.20
2019-02-23T22:55:14.250Z,0.20
2019-02-23T22:57:42.925Z,0.20
2019-02-23T23:00:15.073Z,0.10
2019-02-23T23:02:43.754Z,0.00
2019-02-23T23:05:12.409Z,0.00
2019-02-23T23:07:41.058Z,0.00
2019-02-23T23:10:09.777Z,0.00
2019-02-23T23:12:38.313Z,0.10
2019-02-23T23:15:08.126Z,0.00
2019-02-23T23:17:36.763Z,0.00
2019-02-23T23:20:07.577Z,0.10
2019-02-23T23:22:36.282Z,0.10
2019-02-23T23:25:06.589Z,0.10
2019-02-23T23:27:35.280Z,0.10
2019-02-23T23:30:05.057Z,0.10
2019-02-23T23:32:33.618Z,0.00
2019-02-23T23:35:02.271Z,0.00
2019-02-23T23:37:30.949Z,0.10
2019-02-23T23:39:59.439Z,0.10
2019-02-23T23:42:28.165Z,0.10
2019-02-23T23:44:57.056Z,0.10
2019-02-23T23:47:25.697Z,0.10
2019-02-23T23:49:54.393Z,0.10
2019-02-23T23:52:22.954Z,0.10
2019-02-23T23:54:51.493Z,0.00
2019-02-23T23:57:20.078Z,0.00
2019-02-23T23:59:48.605Z,0.10
